Time;durP1;ratioP1;P1;durP2;ratioP2;P2;SDS_P1;SDS_P2;PMS_P1;PMS_P2;Temp;Humidity;BMP_temperature;BMP_pressure;BME280_temperature;BME280_humidity;BME280_pressure;Samples;Min_cycle;Max_cycle;Signal;HPM_P1;HPM_P2
2024/04/07 00:02:17;;;;;;;5.03;1.60;;;20.40;80.80;;;;;;5013147;28;20335;-47
2024/04/07 00:04:43;;;;;;;5.97;1.38;;;20.40;80.70;;;;;;5012786;28;20026;-47
2024/04/07 00:07:08;;;;;;;5.55;1.50;;;20.40;80.80;;;;;;5012672;28;20376;-47
2024/04/07 00:09:37;;;;;;;3.10;1.30;;;20.30;81.10;;;;;;5012604;28;20133;-48
2024/04/07 00:12:08;;;;;;;5.22;1.48;;;20.30;80.50;;;;;;5012707;28;20037;-46
2024/04/07 00:14:38;;;;;;;3.53;1.23;;;20.30;80.30;;;;;;5011321;28;20042;-48
2024/04/07 00:17:05;;;;;;;6.68;1.75;;;20.30;80.40;;;;;;5012543;28;20072;-51
2024/04/07 00:19:32;;;;;;;4.30;1.20;;;20.30;80.20;;;;;;5012618;28;20388;-50
2024/04/07 00:21:58;;;;;;;4.40;1.35;;;20.30;80.60;;;;;;5012518;28;20065;-50
2024/04/07 00:24:23;;;;;;;3.70;1.33;;;20.30;79.90;;;;;;5012429;28;20066;-50
2024/04/07 00:26:50;;;;;;;5.80;1.55;;;20.30;80.00;;;;;;5011982;28;20076;-50
2024/04/07 00:29:15;;;;;;;3.05;1.30;;;20.30;79.80;;;;;;5010883;28;20171;-51
2024/04/07 00:31:41;;;;;;;3.17;1.33;;;20.40;79.40;;;;;;5012419;28;20161;-52
2024/04/07 00:34:07;;;;;;;6.38;1.10;;;20.40;79.10;;;;;;5012405;28;20057;-51
2024/04/07 00:36:33;;;;;;;7.10;1.80;;;20.50;79.10;;;;;;5011590;28;20030;-52
2024/04/07 00:38:59;;;;;;;9.52;1.60;;;20.50;79.20;;;;;;5012226;28;20080;-52
2024/04/07 00:41:24;;;;;;;6.60;1.10;;;20.50;79.00;;;;;;5012219;28;20033;-52
2024/04/07 00:43:50;;;;;;;3.67;1.60;;;20.50;79.20;;;;;;5012258;28;20030;-51
2024/04/07 00:46:16;;;;;;;7.82;1.67;;;20.60;79.10;;;;;;5011794;28;20030;-51
2024/04/07 00:48:43;;;;;;;5.75;1.42;;;20.50;79.40;;;;;;5012235;28;20030;-52
2024/04/07 00:51:09;;;;;;;5.90;1.60;;;20.40;79.60;;;;;;5011881;28;20085;-52
2024/04/07 00:53:35;;;;;;;2.95;1.10;;;20.30;80.30;;;;;;5012390;28;20083;-50
2024/04/07 00:56:00;;;;;;;3.10;1.33;;;20.40;79.80;;;;;;5011976;28;20129;-47
2024/04/07 00:58:26;;;;;;;4.47;1.17;;;20.40;79.80;;;;;;5012017;28;20042;-52
2024/04/07 01:00:52;;;;;;;4.50;1.42;;;20.50;79.60;;;;;;5011733;28;20033;-50
2024/04/07 01:03:18;;;;;;;4.55;1.20;;;20.60;79.10;;;;;;5012071;28;20026;-52
2024/04/07 01:05:48;;;;;;;3.63;1.27;;;20.50;79.20;;;;;;5011630;28;20053;-51
2024/04/07 01:08:15;;;;;;;5.18;1.20;;;20.50;79.30;;;;;;5011610;28;20029;-49
2024/04/07 01:10:42;;;;;;;5.45;1.60;;;20.50;79.20;;;;;;5011972;28;20499;-49
2024/04/07 01:13:09;;;;;;;6.53;1.13;;;20.60;79.40;;;;;;5011981;28;20030;-51
2024/04/07 01:15:35;;;;;;;5.32;1.30;;;20.60;79.40;;;;;;5011575;28;20025;-51
2024/04/07 01:18:01;;;;;;;4.18;1.80;;;20.50;79.70;;;;;;5011644;28;20117;-49
2024/04/07 01:20:28;;;;;;;2.60;1.15;;;20.40;80.50;;;;;;5011339;28;20060;-52
2024/04/07 01:22:54;;;;;;;5.60;1.98;;;20.40;80.20;;;;;;5011566;28;20076;-50
2024/04/07 01:25:20;;;;;;;6.20;1.30;;;20.40;80.60;;;;;;5011335;28;20026;-49
2024/04/07 01:27:50;;;;;;;3.30;1.30;;;20.30;80.50;;;;;;5011418;28;20044;-52
2024/04/07 01:30:16;;;;;;;4.65;1.23;;;20.20;81.70;;;;;;5011218;28;20125;-47
2024/04/07 01:32:44;;;;;;;3.60;1.33;;;20.10;81.90;;;;;;5011410;28;20125;-51
2024/04/07 01:35:09;;;;;;;3.55;1.33;;;20.10;82.30;;;;;;5010953;28;20446;-50
2024/04/07 01:37:35;;;;;;;4.05;1.50;;;20.10;82.00;;;;;;5011052;28;20130;-50
2024/04/07 01:40:03;;;;;;;4.63;1.30;;;20.10;82.20;;;;;;5010900;28;20080;-47
2024/04/07 01:42:29;;;;;;;7.00;1.40;;;20.10;82.70;;;;;;5011180;28;20034;-51
2024/04/07 01:44:55;;;;;;;6.03;1.48;;;20.00;83.00;;;;;;5011028;28;20037;-46
2024/04/07 01:47:20;;;;;;;5.88;1.55;;;19.90;84.10;;;;;;5010036;28;20395;-51
2024/04/07 01:49:50;;;;;;;6.85;1.38;;;19.80;84.00;;;;;;5010467;28;20034;-49
2024/04/07 01:52:16;;;;;;;4.70;1.58;;;19.80;84.10;;;;;;5010923;28;20026;-50
2024/04/07 01:54:42;;;;;;;3.42;1.20;;;19.70;84.90;;;;;;5010769;28;20042;-52
2024/04/07 01:57:07;;;;;;;4.70;1.67;;;19.60;85.70;;;;;;5010815;28;20096;-51
2024/04/07 01:59:33;;;;;;;6.93;1.20;;;19.60;85.50;;;;;;5010578;28;20025;-50
2024/04/07 02:01:59;;;;;;;5.53;1.63;;;19.50;86.20;;;;;;5010922;28;20117;-49
2024/04/07 02:04:27;;;;;;;5.28;1.50;;;19.60;86.40;;;;;;5010640;28;20275;-51
2024/04/07 02:06:52;;;;;;;5.07;1.27;;;19.60;86.60;;;;;;5010688;28;20038;-50
2024/04/07 02:09:18;;;;;;;5.57;1.95;;;19.60;87.20;;;;;;5010891;28;20030;-50
2024/04/07 02:11:44;;;;;;;7.22;1.60;;;19.70;87.40;;;;;;5010698;28;20030;-51
2024/04/07 02:14:09;;;;;;;5.57;1.70;;;19.80;88.00;;;;;;5010895;28;20026;-50
2024/04/07 02:16:35;;;;;;;7.55;1.60;;;19.90;88.50;;;;;;5010601;28;20030;-50
2024/04/07 02:19:01;;;;;;;5.38;1.55;;;19.90;88.70;;;;;;5010695;28;20030;-51
2024/04/07 02:21:26;;;;;;;7.57;1.98;;;19.80;89.40;;;;;;5010452;28;20064;-50
2024/04/07 02:23:52;;;;;;;4.60;1.38;;;19.80;89.80;;;;;;5010850;28;20018;-48
2024/04/07 02:26:17;;;;;;;5.18;1.70;;;19.80;90.10;;;;;;5010579;28;20132;-51
2024/04/07 02:28:43;;;;;;;9.60;1.55;;;19.70;90.50;;;;;;5011033;28;20026;-50
2024/04/07 02:31:09;;;;;;;6.13;1.60;;;19.70;90.80;;;;;;5010570;28;20042;-51
2024/04/07 02:33:36;;;;;;;4.75;1.30;;;19.70;91.00;;;;;;5010821;28;20152;-51
2024/04/07 02:36:01;;;;;;;7.57;1.55;;;19.60;91.20;;;;;;5010364;28;20071;-49
2024/04/07 02:38:27;;;;;;;6.65;1.95;;;19.50;91.70;;;;;;5010599;28;20067;-51
2024/04/07 02:40:52;;;;;;;3.85;1.58;;;19.50;92.10;;;;;;5008887;28;20236;-50
2024/04/07 02:43:18;;;;;;;3.95;1.52;;;19.40;92.50;;;;;;5010698;28;20498;-50
2024/04/07 02:48:28;;;;;;;10.00;1.65;;;19.20;93.70;;;;;;5010446;28;20037;-51
2024/04/07 02:50:54;;;;;;;6.20;1.80;;;19.20;94.40;;;;;;5009994;28;20036;-48
2024/04/07 02:53:20;;;;;;;7.68;2.75;;;19.00;95.10;;;;;;5010565;28;20395;-48
2024/04/07 02:55:46;;;;;;;5.22;1.67;;;18.90;95.60;;;;;;5010304;28;20034;-49
2024/04/07 02:58:11;;;;;;;6.70;1.98;;;18.90;96.00;;;;;;5010236;28;20044;-52
2024/04/07 03:00:37;;;;;;;11.52;2.20;;;18.80;96.70;;;;;;5013738;28;20041;-50
2024/04/07 03:03:02;;;;;;;8.23;1.90;;;18.70;97.00;;;;;;5014252;28;20030;-47
2024/04/07 03:05:28;;;;;;;6.32;1.83;;;18.70;97.70;;;;;;5013850;28;20030;-50
2024/04/07 03:07:54;;;;;;;5.45;1.98;;;18.60;98.10;;;;;;5013838;28;20052;-48
2024/04/07 03:10:19;;;;;;;5.55;2.40;;;18.50;98.50;;;;;;5013748;28;20061;-47
2024/04/07 03:12:45;;;;;;;6.28;2.60;;;18.60;98.80;;;;;;5014136;28;20038;-48
2024/04/07 03:15:11;;;;;;;8.52;2.30;;;18.50;99.00;;;;;;5014163;28;20260;-47
2024/04/07 03:17:37;;;;;;;11.88;3.25;;;18.40;99.20;;;;;;5013989;28;20038;-48
2024/04/07 03:20:05;;;;;;;10.13;3.92;;;18.40;99.60;;;;;;5013672;28;20404;-52
2024/04/07 03:22:31;;;;;;;7.65;2.30;;;18.30;99.90;;;;;;5013896;28;20030;-51
2024/04/07 03:24:57;;;;;;;7.65;1.80;;;18.20;99.90;;;;;;5012071;28;20045;-47
2024/04/07 03:27:22;;;;;;;4.97;1.70;;;18.10;99.90;;;;;;5013521;28;20026;-52
2024/04/07 03:29:48;;;;;;;10.07;2.30;;;18.10;99.90;;;;;;5013178;28;20093;-52
2024/04/07 03:32:13;;;;;;;7.28;2.53;;;18.00;99.90;;;;;;5013634;28;20034;-50
2024/04/07 03:34:39;;;;;;;7.57;2.15;;;18.00;99.90;;;;;;5013321;28;20061;-51
2024/04/07 03:37:06;;;;;;;7.30;2.33;;;18.00;99.90;;;;;;5013432;28;20076;-51
2024/04/07 03:39:32;;;;;;;8.10;2.08;;;17.90;99.90;;;;;;5013322;28;20034;-51
2024/04/07 03:41:57;;;;;;;8.93;2.67;;;17.90;99.90;;;;;;5012159;28;20049;-48
2024/04/07 03:44:23;;;;;;;9.05;2.80;;;17.80;99.90;;;;;;5013371;28;20029;-51
2024/04/07 03:46:49;;;;;;;14.30;3.75;;;17.90;99.90;;;;;;5013120;28;20030;-50
2024/04/07 03:49:15;;;;;;;13.80;3.97;;;17.80;99.90;;;;;;5013378;28;20028;-52
2024/04/07 03:51:41;;;;;;;11.60;3.35;;;17.80;99.90;;;;;;5013210;28;20509;-52
2024/04/07 03:54:07;;;;;;;12.35;2.90;;;17.80;99.90;;;;;;5013266;28;20034;-47
2024/04/07 03:56:32;;;;;;;8.10;2.45;;;17.80;99.90;;;;;;5012835;28;20033;-48
2024/04/07 03:58:58;;;;;;;11.95;2.63;;;17.70;99.90;;;;;;5013115;28;20042;-52
2024/04/07 04:01:23;;;;;;;9.27;2.70;;;17.70;99.90;;;;;;5012809;28;20033;-49
2024/04/07 04:03:49;;;;;;;11.95;2.60;;;17.70;99.90;;;;;;5011958;28;20030;-51
2024/04/07 04:06:15;;;;;;;10.32;2.78;;;17.70;99.90;;;;;;5011551;28;20092;-48
2024/04/07 04:08:41;;;;;;;9.38;2.83;;;17.60;99.90;;;;;;5013257;28;20036;-51
2024/04/07 04:11:08;;;;;;;9.38;2.75;;;17.50;99.90;;;;;;5012045;28;20105;-50
2024/04/07 04:13:37;;;;;;;12.43;3.33;;;17.50;99.90;;;;;;5012766;28;20048;-50
2024/04/07 04:16:03;;;;;;;;;;;17.40;99.90;;;;;;5012867;28;20099;-50
2024/04/07 04:18:29;;;;;;;9.57;3.47;;;17.40;99.90;;;;;;5013108;28;20009;-51
2024/04/07 04:20:54;;;;;;;8.55;3.08;;;17.30;99.90;;;;;;5012360;28;20034;-51
2024/04/07 04:23:20;;;;;;;10.90;3.22;;;17.30;99.90;;;;;;5012578;28;20029;-52
2024/04/07 04:25:55;;;;;;;9.85;3.47;;;17.30;99.90;;;;;;5011071;28;20137;-52
2024/04/07 04:28:22;;;;;;;10.38;3.30;;;17.30;99.90;;;;;;5012425;28;20045;-51
2024/04/07 04:30:56;;;;;;;9.25;3.17;;;17.20;99.90;;;;;;5012223;28;20040;-51
2024/04/07 04:33:22;;;;;;;11.43;3.15;;;17.20;99.90;;;;;;5012505;28;20139;-51
2024/04/07 04:35:51;;;;;;;9.75;2.10;;;17.20;99.90;;;;;;5012207;28;20034;-47
2024/04/07 04:38:17;;;;;;;;;;;17.20;99.90;;;;;;5011459;28;20091;-46
2024/04/07 04:40:53;;;;;;;5.03;1.60;;;17.40;99.90;;;;;;5011921;28;19913;-47
2024/04/07 04:43:19;;;;;;;8.05;1.92;;;17.50;99.90;;;;;;5012402;28;20030;-47
2024/04/07 04:45:48;;;;;;;5.90;1.75;;;17.50;99.90;;;;;;5012279;28;20026;-47
2024/04/07 04:48:14;;;;;;;12.57;6.00;;;17.50;99.90;;;;;;5011883;28;20034;-46
2024/04/07 04:50:40;;;;;;;10.57;3.80;;;17.50;99.90;;;;;;5011839;28;20044;-48
2024/04/07 04:53:05;;;;;;;12.60;3.38;;;17.50;99.90;;;;;;5011959;28;20033;-47
2024/04/07 04:55:32;;;;;;;15.88;6.05;;;17.40;99.90;;;;;;5011775;28;20033;-46
2024/04/07 04:57:58;;;;;;;4.15;1.63;;;17.40;99.90;;;;;;5011946;28;20033;-46
2024/04/07 05:00:27;;;;;;;7.82;1.60;;;17.40;99.90;;;;;;5011439;28;20034;-47
2024/04/07 05:02:52;;;;;;;8.68;1.85;;;17.30;99.90;;;;;;5011946;28;20105;-48
2024/04/07 05:05:18;;;;;;;6.05;1.48;;;17.40;99.90;;;;;;5011463;28;20117;-48
2024/04/07 05:07:44;;;;;;;5.10;1.70;;;17.40;99.90;;;;;;5011311;28;20037;-49
2024/04/07 05:10:09;;;;;;;3.60;1.42;;;17.40;99.90;;;;;;5011818;28;20048;-46
2024/04/07 05:12:35;;;;;;;3.80;1.17;;;17.40;99.90;;;;;;5011515;28;20072;-51
2024/04/07 05:15:00;;;;;;;6.00;1.63;;;17.40;99.90;;;;;;5011164;28;20029;-51
2024/04/07 05:17:26;;;;;;;5.95;1.02;;;17.50;99.90;;;;;;5010091;28;20402;-47
2024/04/07 05:19:51;;;;;;;3.78;1.05;;;17.50;99.90;;;;;;5009926;28;20038;-47
2024/04/07 05:22:17;;;;;;;3.67;0.90;;;17.50;99.90;;;;;;5011320;28;20036;-51
2024/04/07 05:24:43;;;;;;;2.35;0.93;;;17.50;99.90;;;;;;5011214;28;20022;-52
2024/04/07 05:27:09;;;;;;;6.35;1.30;;;17.50;99.90;;;;;;5011277;28;20026;-49
2024/04/07 05:29:35;;;;;;;5.65;1.33;;;17.60;99.90;;;;;;5011256;28;20493;-47
2024/04/07 05:32:00;;;;;;;8.32;2.47;;;17.50;99.90;;;;;;5010007;28;20037;-50
2024/04/07 05:34:29;;;;;;;4.75;1.20;;;17.50;99.90;;;;;;5011231;28;20360;-49
2024/04/07 05:36:55;;;;;;;4.65;1.05;;;17.50;99.90;;;;;;5010942;28;20092;-49
2024/04/07 05:39:20;;;;;;;4.68;0.88;;;17.50;99.90;;;;;;5011373;28;20037;-49
2024/04/07 05:41:48;;;;;;;5.75;1.17;;;17.50;99.90;;;;;;5011446;28;20113;-51
2024/04/07 05:44:14;;;;;;;3.95;1.00;;;17.50;99.90;;;;;;5011241;28;20026;-51
2024/04/07 05:46:39;;;;;;;4.15;1.08;;;17.50;99.90;;;;;;5010566;28;20033;-49
2024/04/07 05:49:05;;;;;;;2.63;0.93;;;17.50;99.90;;;;;;5009033;28;20076;-47
2024/04/07 05:51:30;;;;;;;3.00;1.00;;;17.50;99.90;;;;;;5000535;28;20034;-50
2024/04/07 05:53:57;;;;;;;4.38;1.08;;;17.50;99.90;;;;;;4991943;28;20050;-49
2024/04/07 05:56:23;;;;;;;3.22;0.95;;;17.40;99.90;;;;;;4991239;28;20117;-49
2024/04/07 05:58:48;;;;;;;4.97;1.17;;;17.40;99.90;;;;;;4991596;28;20478;-49
2024/04/07 06:01:14;;;;;;;4.20;0.95;;;17.40;99.90;;;;;;4991342;28;20057;-49
2024/04/07 06:03:39;;;;;;;3.85;1.02;;;17.40;99.90;;;;;;4991569;28;20440;-50
2024/04/07 06:06:05;;;;;;;3.70;1.20;;;17.50;99.90;;;;;;4990975;28;20049;-50
2024/04/07 06:08:31;;;;;;;3.05;1.20;;;17.60;99.90;;;;;;4991393;28;20034;-49
2024/04/07 06:10:56;;;;;;;3.78;1.30;;;17.60;99.90;;;;;;4991347;28;20117;-46
2024/04/07 06:13:22;;;;;;;20.35;10.95;;;17.60;99.90;;;;;;4991421;28;20112;-48
2024/04/07 06:15:47;;;;;;;15.65;7.75;;;17.60;99.90;;;;;;4991192;28;20031;-47
2024/04/07 06:18:13;;;;;;;4.97;1.10;;;17.70;99.90;;;;;;4991567;28;20420;-48
2024/04/07 06:20:39;;;;;;;2.67;1.00;;;17.70;99.90;;;;;;4991109;28;20081;-50
2024/04/07 06:23:05;;;;;;;3.55;1.10;;;17.70;99.90;;;;;;4990183;28;20488;-51
2024/04/07 06:25:30;;;;;;;4.35;1.13;;;17.70;99.90;;;;;;4991427;28;20026;-48
2024/04/07 06:27:56;;;;;;;3.45;0.93;;;17.70;99.90;;;;;;4991438;28;20038;-52
2024/04/07 06:30:21;;;;;;;3.38;0.93;;;17.70;99.90;;;;;;4991057;28;20173;-51
2024/04/07 06:32:47;;;;;;;5.90;1.25;;;17.70;99.90;;;;;;5006469;28;20112;-52
2024/04/07 06:35:13;;;;;;;2.30;0.80;;;17.80;99.90;;;;;;5013481;28;20386;-49
2024/04/07 06:37:38;;;;;;;3.35;1.00;;;17.80;99.90;;;;;;5014894;28;20033;-47
2024/04/07 06:40:04;;;;;;;4.63;1.10;;;17.90;99.90;;;;;;5014663;28;20526;-51
2024/04/07 06:42:31;;;;;;;2.30;0.80;;;17.90;99.90;;;;;;5014895;28;20710;-50
2024/04/07 06:44:59;;;;;;;3.95;0.93;;;17.90;99.90;;;;;;4996730;28;20054;-49
2024/04/07 06:47:26;;;;;;;5.97;1.70;;;18.00;99.90;;;;;;4997692;28;20130;-52
2024/04/07 06:49:54;;;;;;;2.70;0.95;;;18.10;99.90;;;;;;4994760;28;20042;-50
2024/04/07 06:52:21;;;;;;;2.42;0.93;;;18.20;99.90;;;;;;4995270;28;20129;-52
2024/04/07 06:54:46;;;;;;;4.18;1.15;;;18.20;99.90;;;;;;4995173;28;20357;-52
2024/04/07 06:57:14;;;;;;;2.63;0.80;;;18.30;99.90;;;;;;4995032;28;20077;-52
2024/04/07 06:59:40;;;;;;;4.20;1.10;;;18.40;99.90;;;;;;4994715;28;20380;-52
2024/04/07 07:02:06;;;;;;;4.15;0.82;;;18.50;99.90;;;;;;4995158;28;20022;-49
2024/04/07 07:04:31;;;;;;;3.42;0.80;;;18.60;99.90;;;;;;4994817;28;20052;-50
2024/04/07 07:06:57;;;;;;;3.42;1.00;;;18.50;99.90;;;;;;4994617;28;20030;-49
2024/04/07 07:09:23;;;;;;;4.82;1.20;;;18.60;99.90;;;;;;4994986;28;20019;-49
2024/04/07 07:11:48;;;;;;;4.43;1.08;;;18.60;99.90;;;;;;4998276;28;20042;-48
2024/04/07 07:14:14;;;;;;;3.70;0.98;;;18.60;99.90;;;;;;5014242;28;20041;-47
2024/04/07 07:16:40;;;;;;;7.20;1.05;;;18.50;99.90;;;;;;5012120;28;20100;-51
2024/04/07 07:19:05;;;;;;;3.15;0.90;;;18.60;99.90;;;;;;5014085;28;20034;-50
2024/04/07 07:21:31;;;;;;;5.05;1.05;;;18.60;99.90;;;;;;5013965;28;20029;-51
2024/04/07 07:23:56;;;;;;;5.20;1.40;;;18.60;99.90;;;;;;5014289;28;20060;-51
2024/04/07 07:26:22;;;;;;;4.60;1.17;;;18.60;99.90;;;;;;5014042;28;20026;-49
2024/04/07 07:28:48;;;;;;;5.63;1.00;;;18.70;99.90;;;;;;5014018;28;20398;-47
2024/04/07 07:31:14;;;;;;;5.63;1.40;;;18.70;99.90;;;;;;5013766;28;20505;-49
2024/04/07 07:33:40;;;;;;;5.43;1.10;;;18.70;99.90;;;;;;5013894;28;20119;-49
2024/04/07 07:36:05;;;;;;;2.90;1.13;;;18.60;99.90;;;;;;5010561;28;20048;-47
2024/04/07 07:38:31;;;;;;;5.97;1.20;;;18.50;99.90;;;;;;5012367;28;20452;-48
2024/04/07 07:40:57;;;;;;;2.88;1.45;;;18.40;99.90;;;;;;5012570;28;20041;-51
2024/04/07 07:43:22;;;;;;;7.10;1.10;;;18.30;99.90;;;;;;5012451;28;20105;-50
2024/04/07 07:45:49;;;;;;;3.90;1.20;;;18.30;99.90;;;;;;5011041;28;20498;-48
2024/04/07 07:48:15;;;;;;;4.30;1.23;;;18.20;99.90;;;;;;5012214;28;20046;-47
2024/04/07 07:50:42;;;;;;;4.18;1.40;;;18.20;99.90;;;;;;5012415;28;20029;-47
2024/04/07 07:53:08;;;;;;;5.75;1.55;;;18.20;99.90;;;;;;5012547;28;20041;-50
2024/04/07 07:55:34;;;;;;;4.80;1.15;;;18.20;99.90;;;;;;5010502;28;20584;-51
2024/04/07 07:57:59;;;;;;;3.88;1.23;;;18.20;99.90;;;;;;5010025;28;20109;-49
2024/04/07 08:00:25;;;;;;;3.33;1.27;;;18.20;99.90;;;;;;5011168;28;20112;-48
2024/04/07 08:02:54;;;;;;;2.88;1.13;;;18.30;99.90;;;;;;5012228;28;20539;-48
2024/04/07 08:05:19;;;;;;;3.72;1.10;;;18.40;99.90;;;;;;5012169;28;20061;-47
2024/04/07 08:07:45;;;;;;;3.78;1.20;;;18.40;99.90;;;;;;5011552;28;20065;-47
2024/04/07 08:10:12;;;;;;;4.97;2.20;;;18.40;99.90;;;;;;5012764;28;20633;-48
2024/04/07 08:12:38;;;;;;;3.95;1.10;;;18.40;99.90;;;;;;5010130;28;20037;-47
2024/04/07 08:15:05;;;;;;;3.28;1.13;;;18.50;99.90;;;;;;5010010;28;20041;-47
2024/04/07 08:17:30;;;;;;;4.97;1.25;;;18.60;99.90;;;;;;5012052;28;20030;-47
2024/04/07 08:19:56;;;;;;;4.35;1.35;;;18.60;99.90;;;;;;5012151;28;20045;-47
2024/04/07 08:22:21;;;;;;;4.20;1.35;;;18.70;99.90;;;;;;5012654;28;20033;-49
2024/04/07 08:24:47;;;;;;;2.83;1.10;;;18.90;99.90;;;;;;5012121;28;20021;-51
2024/04/07 08:27:13;;;;;;;3.08;1.00;;;19.00;99.90;;;;;;5012221;28;20367;-46
2024/04/07 08:29:38;;;;;;;3.78;1.00;;;19.10;99.90;;;;;;5012141;28;20029;-47
2024/04/07 08:32:04;;;;;;;5.15;1.10;;;19.40;99.90;;;;;;5011937;28;20022;-46
2024/04/07 08:34:30;;;;;;;4.60;1.00;;;19.60;99.90;;;;;;5012090;28;20379;-46
2024/04/07 08:36:56;;;;;;;4.15;1.20;;;19.70;99.90;;;;;;5010653;28;20022;-46
2024/04/07 08:39:21;;;;;;;6.10;2.00;;;19.70;99.90;;;;;;5012309;28;20080;-46
2024/04/07 08:41:47;;;;;;;15.73;9.50;;;19.80;99.90;;;;;;5012252;28;20369;-46
2024/04/07 08:44:13;;;;;;;3.70;1.63;;;19.90;99.90;;;;;;5012994;28;20026;-45
2024/04/07 08:46:44;;;;;;;5.85;2.38;;;20.00;99.90;;;;;;5012716;28;20030;-45
2024/04/07 08:49:13;;;;;;;10.65;3.15;;;20.20;99.90;;;;;;5013558;28;20475;-45
2024/04/07 08:51:41;;;;;;;3.42;1.00;;;20.10;99.90;;;;;;5012395;28;20105;-48
2024/04/07 08:54:08;;;;;;;3.40;1.15;;;20.10;99.90;;;;;;5012728;28;20096;-48
2024/04/07 08:56:40;;;;;;;3.42;1.00;;;20.10;99.90;;;;;;5011420;28;20192;-50
2024/04/07 08:59:06;;;;;;;3.05;1.00;;;20.00;99.90;;;;;;5010502;28;20121;-47
2024/04/07 09:01:32;;;;;;;2.95;0.93;;;20.10;99.90;;;;;;5011491;28;20519;-48
2024/04/07 09:03:59;;;;;;;2.30;0.90;;;20.20;99.70;;;;;;5011847;28;20033;-51
2024/04/07 09:06:28;;;;;;;4.68;1.10;;;20.40;99.00;;;;;;5016283;28;20034;-49
2024/04/07 09:08:58;;;;;;;3.75;1.08;;;20.30;99.20;;;;;;5019483;28;20026;-49
2024/04/07 09:11:24;;;;;;;4.07;1.30;;;20.40;99.30;;;;;;5031173;28;20094;-51
2024/04/07 09:13:50;;;;;;;5.32;1.08;;;20.60;99.30;;;;;;5031404;28;20215;-49
2024/04/07 09:16:16;;;;;;;2.90;0.98;;;20.70;99.50;;;;;;5031072;28;20112;-51
2024/04/07 09:18:41;;;;;;;4.97;1.08;;;21.00;98.00;;;;;;5031399;28;20543;-52
2024/04/07 09:21:21;;;;;;;4.45;1.13;;;21.20;97.60;;;;;;5031179;28;20499;-51
2024/04/07 09:23:50;;;;;;;4.60;1.33;;;21.30;97.70;;;;;;5031337;28;20040;-49
2024/04/07 09:26:16;;;;;;;3.90;0.95;;;21.50;97.30;;;;;;5030838;28;20234;-50
2024/04/07 09:28:43;;;;;;;4.68;1.20;;;21.40;96.80;;;;;;5002081;28;20113;-50
2024/04/07 09:31:08;;;;;;;2.55;0.80;;;21.50;96.70;;;;;;4991536;28;20030;-51
2024/04/07 09:33:35;;;;;;;3.25;0.70;;;21.50;96.10;;;;;;4991783;28;20463;-48
2024/04/07 09:36:02;;;;;;;2.92;0.90;;;21.50;95.10;;;;;;4991428;28;20455;-49
2024/04/07 09:38:28;;;;;;;6.88;1.00;;;21.50;95.50;;;;;;4991283;28;20042;-51
2024/04/07 09:40:58;;;;;;;3.17;1.00;;;21.50;95.90;;;;;;4991243;28;20042;-48
2024/04/07 09:43:24;;;;;;;3.10;1.00;;;21.50;95.10;;;;;;4991641;28;20033;-49
2024/04/07 09:45:52;;;;;;;3.63;1.02;;;21.70;95.20;;;;;;4991251;28;20054;-49
2024/04/07 09:48:20;;;;;;;3.53;0.77;;;22.00;94.40;;;;;;4991233;28;20525;-49
2024/04/07 09:50:57;;;;;;;3.50;0.90;;;22.20;94.40;;;;;;4991146;28;20038;-49
2024/04/07 09:53:34;;;;;;;2.88;0.80;;;22.20;93.80;;;;;;4991424;28;20034;-51
2024/04/07 09:56:03;;;;;;;2.63;0.80;;;22.00;93.60;;;;;;4991148;28;20026;-50
2024/04/07 09:58:30;;;;;;;2.20;0.68;;;21.90;93.40;;;;;;4991373;28;20034;-51
2024/04/07 10:00:56;;;;;;;3.67;0.85;;;21.70;93.20;;;;;;4990945;28;20030;-47
2024/04/07 10:03:23;;;;;;;1.73;0.73;;;21.50;93.40;;;;;;4991422;28;20042;-50
2024/04/07 10:05:48;;;;;;;4.72;0.95;;;21.40;93.50;;;;;;4990799;28;20125;-50
2024/04/07 10:08:15;;;;;;;2.35;0.90;;;21.40;93.50;;;;;;4990951;28;20105;-51
2024/04/07 10:10:41;;;;;;;4.72;1.40;;;21.30;93.80;;;;;;4990876;28;20026;-47
2024/04/07 10:13:11;;;;;;;4.47;1.27;;;21.10;93.50;;;;;;4991957;28;20018;-50
2024/04/07 10:15:37;;;;;;;2.25;0.80;;;21.10;93.70;;;;;;4992706;28;20125;-50
2024/04/07 10:18:32;;;;;;;2.63;0.82;;;21.00;93.50;;;;;;5011401;28;20080;-52
2024/04/07 10:20:59;;;;;;;5.20;1.20;;;21.00;94.10;;;;;;5010302;28;20077;-49
2024/04/07 10:23:26;;;;;;;4.10;1.15;;;21.10;94.20;;;;;;5011034;28;20419;-50
2024/04/07 10:25:59;;;;;;;4.32;1.10;;;20.90;93.90;;;;;;5010867;28;20040;-50
2024/04/07 10:28:25;;;;;;;2.90;1.20;;;21.00;93.90;;;;;;5010319;28;20049;-51
2024/04/07 10:30:58;;;;;;;6.25;1.00;;;21.20;93.90;;;;;;5010416;28;20104;-49
2024/04/07 10:33:30;;;;;;;2.08;0.88;;;21.50;93.40;;;;;;5010912;28;20042;-51
2024/04/07 10:36:08;;;;;;;4.13;1.15;;;21.60;93.60;;;;;;5010410;28;20096;-52
2024/04/07 10:39:03;;;;;;;4.00;1.10;;;21.50;93.20;;;;;;5010817;28;20057;-50
2024/04/07 10:41:33;;;;;;;3.63;1.05;;;21.50;92.70;;;;;;5001391;28;20053;-53
2024/04/07 10:44:00;;;;;;;2.60;0.90;;;21.70;93.00;;;;;;5009166;28;20392;-50
2024/04/07 10:46:27;;;;;;;2.35;1.45;;;21.80;93.00;;;;;;5010061;28;20040;-51
2024/04/07 10:48:53;;;;;;;2.03;0.55;;;21.80;92.50;;;;;;5008931;28;20045;-50
2024/04/07 10:51:22;;;;;;;2.72;0.68;;;22.00;93.50;;;;;;5010595;28;20129;-50
2024/04/07 10:54:01;;;;;;;2.80;0.70;;;22.00;92.90;;;;;;5009258;28;20029;-51
2024/04/07 10:56:27;;;;;;;2.95;0.80;;;22.00;92.50;;;;;;5010464;28;20034;-52
2024/04/07 10:58:52;;;;;;;2.00;1.05;;;22.10;92.80;;;;;;5010629;28;20118;-50
2024/04/07 11:01:19;;;;;;;2.40;0.75;;;22.30;92.60;;;;;;5010364;28;20482;-51
2024/04/07 11:03:45;;;;;;;4.07;1.00;;;22.50;92.30;;;;;;5009352;28;20406;-48
2024/04/07 11:06:12;;;;;;;3.42;0.80;;;22.90;92.10;;;;;;5009676;28;20368;-48
2024/04/07 11:08:39;;;;;;;3.80;0.90;;;22.90;91.40;;;;;;5009393;28;20459;-50
2024/04/07 11:11:05;;;;;;;3.25;0.73;;;23.20;91.40;;;;;;5028449;28;20060;-49
2024/04/07 11:13:31;;;;;;;3.33;0.80;;;23.40;91.00;;;;;;5027534;28;20049;-53
2024/04/07 11:15:56;;;;;;;3.40;1.05;;;23.80;91.40;;;;;;5029139;28;20481;-48
2024/04/07 11:18:23;;;;;;;4.07;0.70;;;24.10;89.10;;;;;;5029782;28;20478;-52
2024/04/07 11:20:49;;;;;;;2.50;0.90;;;23.90;88.50;;;;;;5031909;28;20095;-50
2024/04/07 11:23:16;;;;;;;2.70;1.00;;;23.70;88.90;;;;;;5034027;28;20025;-50
2024/04/07 11:25:44;;;;;;;4.57;1.02;;;23.50;89.80;;;;;;5032329;28;20040;-52
2024/04/07 11:28:11;;;;;;;3.85;1.30;;;23.40;90.30;;;;;;5033645;28;20784;-51
2024/04/07 11:30:48;;;;;;;3.78;1.33;;;23.20;90.10;;;;;;5033523;28;20034;-47
2024/04/07 11:33:15;;;;;;;3.25;0.90;;;23.10;90.10;;;;;;5033775;28;20482;-47
2024/04/07 11:35:44;;;;;;;3.30;0.80;;;22.80;90.30;;;;;;5033581;28;20116;-48
2024/04/07 11:38:11;;;;;;;4.18;1.00;;;22.80;90.60;;;;;;5033555;28;20034;-51
2024/04/07 11:40:38;;;;;;;3.20;0.75;;;22.70;90.80;;;;;;5033203;28;20070;-51
2024/04/07 11:43:04;;;;;;;4.22;1.00;;;22.50;90.60;;;;;;5032311;28;20021;-51
2024/04/07 11:45:29;;;;;;;1.88;0.80;;;22.60;90.50;;;;;;5033603;28;20437;-50
2024/04/07 11:47:56;;;;;;;2.53;0.93;;;22.70;90.80;;;;;;5032535;28;20087;-51
2024/04/07 11:50:22;;;;;;;7.53;3.90;;;22.80;90.90;;;;;;5033961;28;20033;-50
2024/04/07 11:52:48;;;;;;;7.45;3.15;;;22.80;90.80;;;;;;5034590;28;20033;-48
2024/04/07 11:55:14;;;;;;;4.20;1.48;;;22.80;90.80;;;;;;5034687;28;20025;-48
2024/04/07 11:57:40;;;;;;;4.35;1.80;;;22.70;90.30;;;;;;5034477;28;20040;-50
2024/04/07 12:00:09;;;;;;;2.67;1.05;;;22.70;90.10;;;;;;5032904;28;20073;-49
2024/04/07 12:02:38;;;;;;;3.58;1.00;;;22.60;88.90;;;;;;5034663;28;20080;-48
2024/04/07 12:05:04;;;;;;;4.70;1.83;;;22.40;88.20;;;;;;5034572;28;20056;-51
2024/04/07 12:07:30;;;;;;;3.28;0.93;;;22.50;86.30;;;;;;5034247;28;20029;-46
2024/04/07 12:09:57;;;;;;;5.70;1.20;;;22.50;84.90;;;;;;5034305;28;20108;-46
2024/04/07 12:12:24;;;;;;;5.43;2.28;;;22.40;84.60;;;;;;5034044;28;20390;-50
2024/04/07 12:14:49;;;;;;;9.02;1.42;;;22.50;86.60;;;;;;5033868;28;20032;-45
2024/04/07 12:17:15;;;;;;;1.73;0.70;;;22.60;84.50;;;;;;5033766;28;20018;-49
2024/04/07 12:19:40;;;;;;;5.28;1.73;;;22.60;83.70;;;;;;5033699;28;20116;-48
2024/04/07 12:22:15;;;;;;;2.65;0.70;;;22.60;83.90;;;;;;5033835;28;20032;-50
2024/04/07 12:24:41;;;;;;;1.77;0.65;;;22.60;83.40;;;;;;5033756;28;20048;-48
2024/04/07 12:27:07;;;;;;;3.22;1.30;;;22.60;82.50;;;;;;5033473;28;20387;-49
2024/04/07 12:29:33;;;;;;;4.35;0.80;;;22.50;82.50;;;;;;5033656;28;20109;-49
2024/04/07 12:32:00;;;;;;;2.15;0.80;;;22.60;83.50;;;;;;5033028;28;20041;-50
2024/04/07 12:34:25;;;;;;;2.90;1.08;;;22.60;84.10;;;;;;5033677;28;20042;-45
2024/04/07 12:36:51;;;;;;;2.60;0.70;;;22.60;83.80;;;;;;5033523;28;20074;-49
2024/04/07 12:39:17;;;;;;;2.55;1.25;;;22.60;83.70;;;;;;5033595;28;20044;-50
2024/04/07 12:41:44;;;;;;;4.47;1.42;;;22.80;84.50;;;;;;5033396;28;20413;-48
2024/04/07 12:44:11;;;;;;;2.10;0.80;;;23.00;86.00;;;;;;5033506;28;20079;-50
2024/04/07 12:46:36;;;;;;;3.25;0.60;;;23.40;84.50;;;;;;5031998;28;20441;-49